createdAt,value
2023-01-11T00:01:23.969Z,2.81
2023-01-11T00:03:53.136Z,2.77
2023-01-11T00:06:21.926Z,2.78
2023-01-11T00:08:50.490Z,2.77
2023-01-11T00:11:19.150Z,2.71
2023-01-11T00:13:48.093Z,2.63
2023-01-11T00:16:17.572Z,2.62
2023-01-11T00:18:46.363Z,2.57
2023-01-11T00:21:15.138Z,2.55
2023-01-11T00:23:43.757Z,2.52
2023-01-11T00:26:13.711Z,2.44
2023-01-11T00:28:42.902Z,2.34
2023-01-11T00:31:11.684Z,2.28
2023-01-11T00:33:40.406Z,2.27
2023-01-11T00:36:09.339Z,2.26
2023-01-11T00:38:44.044Z,2.21
2023-01-11T00:41:34.639Z,2.24
2023-01-11T00:44:23.809Z,2.21
2023-01-11T00:50:20.672Z,2.22
2023-01-11T00:52:49.391Z,2.19
2023-01-11T00:55:18.471Z,2.22
2023-01-11T00:57:49.527Z,2.19
2023-01-11T01:00:20.461Z,2.20
2023-01-11T01:02:50.124Z,2.16
2023-01-11T01:05:19.613Z,2.12
2023-01-11T01:07:48.672Z,2.12
2023-01-11T01:10:18.624Z,2.11
2023-01-11T01:13:06.440Z,2.14
2023-01-11T01:15:35.222Z,2.13
2023-01-11T01:18:04.155Z,2.10
2023-01-11T01:20:32.725Z,2.05
2023-01-11T01:23:01.570Z,2.06
2023-01-11T01:25:30.210Z,2.02
2023-01-11T01:27:58.944Z,1.97
2023-01-11T01:30:27.564Z,2.00
2023-01-11T01:32:56.218Z,1.98
2023-01-11T01:35:24.814Z,2.05
2023-01-11T01:37:53.542Z,2.02
2023-01-11T01:40:23.018Z,1.95
2023-01-11T01:42:55.630Z,1.94
2023-01-11T01:45:28.833Z,1.92
2023-01-11T01:48:02.782Z,1.91
2023-01-11T01:50:52.376Z,1.94
2023-01-11T01:53:32.059Z,1.93
2023-01-11T01:56:03.915Z,1.86
2023-01-11T01:58:49.656Z,1.90
2023-01-11T02:01:37.751Z,1.92
2023-01-11T02:04:17.888Z,1.88
2023-01-11T02:06:46.926Z,1.80
2023-01-11T02:09:33.233Z,1.80
2023-01-11T02:12:03.196Z,1.75
2023-01-11T02:14:33.068Z,1.71
2023-01-11T02:17:01.774Z,1.68
2023-01-11T02:20:06.474Z,1.62
2023-01-11T02:23:22.129Z,1.60
2023-01-11T02:26:02.733Z,1.52
2023-01-11T02:28:49.592Z,1.48
2023-01-11T02:31:56.468Z,1.46
2023-01-11T02:34:47.966Z,1.40
2023-01-11T02:37:42.733Z,1.37
2023-01-11T02:40:32.605Z,1.32
2023-01-11T02:43:44.168Z,1.29
2023-01-11T02:46:28.272Z,1.31
2023-01-11T02:49:12.866Z,1.34
2023-01-11T02:51:54.618Z,1.33
2023-01-11T02:54:25.118Z,1.26
2023-01-11T02:57:00.559Z,1.32
2023-01-11T02:59:33.834Z,1.25
2023-01-11T03:02:02.928Z,1.22
2023-01-11T03:04:38.019Z,1.24
2023-01-11T03:07:46.135Z,1.19
2023-01-11T03:10:52.527Z,1.10
2023-01-11T03:14:09.128Z,0.98
2023-01-11T03:16:54.656Z,0.92
2023-01-11T03:19:48.805Z,0.89
2023-01-11T03:22:37.275Z,0.87
2023-01-11T03:25:32.481Z,0.82
2023-01-11T03:28:38.664Z,0.76
2023-01-11T03:31:40.817Z,0.69
2023-01-11T03:34:36.726Z,0.66
2023-01-11T03:37:17.752Z,0.70
2023-01-11T03:40:08.478Z,0.69
2023-01-11T03:43:02.710Z,0.66
2023-01-11T03:45:35.962Z,0.63
2023-01-11T03:48:07.412Z,0.67
2023-01-11T03:50:36.217Z,0.70
2023-01-11T03:53:08.878Z,0.66
2023-01-11T03:55:45.239Z,0.67
2023-01-11T03:58:14.769Z,0.68
2023-01-11T04:00:44.838Z,0.65
2023-01-11T04:03:14.892Z,0.60
2023-01-11T04:05:48.355Z,0.57
2023-01-11T04:08:17.045Z,0.54
2023-01-11T04:10:45.937Z,0.50
2023-01-11T04:13:14.798Z,0.45
2023-01-11T04:15:43.620Z,0.43
2023-01-11T04:18:12.347Z,0.38
2023-01-11T04:20:41.396Z,0.36
2023-01-11T04:23:10.711Z,0.33
2023-01-11T04:25:39.547Z,0.29
2023-01-11T04:28:08.342Z,0.35
2023-01-11T04:30:37.402Z,0.34
2023-01-11T04:33:06.357Z,0.27
2023-01-11T04:35:35.194Z,0.29
2023-01-11T04:38:04.300Z,0.28
2023-01-11T04:40:33.081Z,0.28
2023-01-11T04:43:02.544Z,0.28
2023-01-11T04:45:31.360Z,0.33
2023-01-11T04:48:00.097Z,0.32
2023-01-11T04:50:28.888Z,0.33
2023-01-11T04:52:59.903Z,0.28
2023-01-11T04:55:28.993Z,0.30
2023-01-11T04:57:58.035Z,0.28
2023-01-11T05:00:26.837Z,0.21
2023-01-11T05:02:59.750Z,0.21
2023-01-11T05:05:28.666Z,0.25
2023-01-11T05:07:57.499Z,0.21
2023-01-11T05:10:26.321Z,0.17
2023-01-11T05:12:55.383Z,0.10
2023-01-11T05:15:24.413Z,-0.00
2023-01-11T05:17:53.421Z,-0.11
2023-01-11T05:20:22.966Z,-0.14
2023-01-11T05:22:53.366Z,-0.16
2023-01-11T05:25:22.417Z,-0.16
2023-01-11T05:27:51.780Z,-0.26
2023-01-11T05:33:43.492Z,-0.22
2023-01-11T05:36:16.653Z,-0.26
2023-01-11T05:42:17.376Z,-0.42
2023-01-11T05:45:05.661Z,-0.51
2023-01-11T05:47:35.063Z,-0.61
2023-01-11T05:50:04.503Z,-0.70
2023-01-11T05:52:33.872Z,-0.71
2023-01-11T05:55:02.665Z,-0.75
2023-01-11T05:57:31.894Z,-0.80
2023-01-11T06:00:00.913Z,-0.76
2023-01-11T06:02:30.101Z,-0.77
2023-01-11T06:04:59.867Z,-0.81
2023-01-11T06:07:29.052Z,-0.81
2023-01-11T06:09:58.011Z,-0.83
2023-01-11T06:12:26.896Z,-0.83
2023-01-11T06:14:55.956Z,-0.88
2023-01-11T06:17:24.958Z,-0.85
2023-01-11T06:19:54.004Z,-0.84
2023-01-11T06:22:22.981Z,-0.80
2023-01-11T06:24:51.937Z,-0.80
2023-01-11T06:27:21.138Z,-0.87
2023-01-11T06:29:50.432Z,-0.86
2023-01-11T06:32:33.110Z,-0.93
2023-01-11T06:35:01.921Z,-0.91
2023-01-11T06:37:30.821Z,-0.96
2023-01-11T06:39:59.777Z,-0.97
2023-01-11T06:42:28.758Z,-0.95
2023-01-11T06:44:57.607Z,-0.92
2023-01-11T06:47:26.752Z,-0.88
2023-01-11T06:49:55.458Z,-0.86
2023-01-11T06:52:24.643Z,-0.93
2023-01-11T06:54:53.429Z,-0.96
2023-01-11T06:57:22.403Z,-0.93
2023-01-11T06:59:51.240Z,-0.95
2023-01-11T07:02:20.088Z,-0.93
2023-01-11T07:04:48.871Z,-0.94
2023-01-11T07:08:07.803Z,-0.96
2023-01-11T07:10:36.808Z,-1.02
2023-01-11T07:13:05.566Z,-0.94
2023-01-11T07:15:35.111Z,-0.94
2023-01-11T07:18:05.891Z,-0.99
2023-01-11T07:20:34.568Z,-0.99
2023-01-11T07:23:03.341Z,-1.06
2023-01-11T07:25:32.027Z,-1.08
2023-01-11T07:28:03.619Z,-1.10
2023-01-11T07:30:55.355Z,-1.04
2023-01-11T07:33:25.987Z,-1.06
2023-01-11T07:35:55.687Z,-1.12
2023-01-11T07:38:24.520Z,-1.14
2023-01-11T07:40:53.193Z,-1.17
2023-01-11T07:43:23.654Z,-1.20
2023-01-11T07:45:53.465Z,-1.19
2023-01-11T07:48:26.800Z,-1.18
2023-01-11T07:50:55.976Z,-1.18
2023-01-11T07:53:26.584Z,-1.29
2023-01-11T07:55:56.398Z,-1.23
2023-01-11T07:58:25.324Z,-1.22
2023-01-11T08:00:54.304Z,-1.25
2023-01-11T08:03:23.637Z,-1.24
2023-01-11T08:05:52.892Z,-1.25
2023-01-11T08:08:22.029Z,-1.26
2023-01-11T08:11:09.500Z,-1.22
2023-01-11T08:13:57.870Z,-1.22
2023-01-11T08:16:29.549Z,-1.20
2023-01-11T08:18:58.956Z,-1.22
2023-01-11T08:21:28.499Z,-1.21
2023-01-11T08:23:59.383Z,-1.19
2023-01-11T08:26:28.620Z,-1.19
2023-01-11T08:28:57.148Z,-1.16
2023-01-11T08:31:26.479Z,-1.17
2023-01-11T08:33:55.412Z,-1.23
2023-01-11T08:36:26.994Z,-1.28
2023-01-11T08:38:59.062Z,-1.28
2023-01-11T08:41:27.745Z,-1.25
2023-01-11T08:43:56.531Z,-1.28
2023-01-11T08:46:26.349Z,-1.31
2023-01-11T08:48:55.262Z,-1.33
2023-01-11T08:51:24.060Z,-1.33
2023-01-11T08:53:53.476Z,-1.38
2023-01-11T08:56:22.166Z,-1.35
2023-01-11T08:58:50.990Z,-1.40
2023-01-11T09:04:51.602Z,-1.42
2023-01-11T09:07:20.376Z,-1.36
2023-01-11T09:09:49.230Z,-1.38
2023-01-11T09:12:18.990Z,-1.34
2023-01-11T09:14:47.525Z,-1.34
2023-01-11T09:17:16.310Z,-1.37
2023-01-11T09:19:45.111Z,-1.40
2023-01-11T09:22:21.957Z,-1.38
2023-01-11T09:24:50.741Z,-1.36
2023-01-11T09:27:20.004Z,-1.34
2023-01-11T09:29:48.773Z,-1.43
2023-01-11T09:32:17.817Z,-1.38
2023-01-11T09:34:47.410Z,-1.36
2023-01-11T09:37:17.076Z,-1.33
2023-01-11T09:39:51.883Z,-1.37
2023-01-11T09:42:35.216Z,-1.37
2023-01-11T09:45:23.647Z,-1.34
2023-01-11T09:48:27.513Z,-1.34
2023-01-11T09:50:57.992Z,-1.34
2023-01-11T09:53:38.729Z,-1.33
2023-01-11T09:56:55.150Z,-1.35
2023-01-11T09:59:48.859Z,-1.38
2023-01-11T10:02:54.242Z,-1.30
2023-01-11T10:05:56.664Z,-1.28
2023-01-11T10:18:26.165Z,-1.26
2023-01-11T10:19:48.244Z,-1.29
2023-01-11T10:22:23.788Z,-1.30
2023-01-11T10:25:22.054Z,-1.27
2023-01-11T10:28:08.081Z,-1.26
2023-01-11T10:31:08.504Z,-1.22
2023-01-11T10:34:18.701Z,-1.21
2023-01-11T10:37:22.939Z,-1.19
2023-01-11T10:40:37.814Z,-1.19
2023-01-11T10:43:22.712Z,-1.19
2023-01-11T10:46:09.482Z,-1.23
2023-01-11T10:48:47.295Z,-1.24
2023-01-11T10:51:42.281Z,-1.25
2023-01-11T10:54:22.370Z,-1.25
2023-01-11T10:57:13.553Z,-1.14
2023-01-11T11:00:04.700Z,-1.14
2023-01-11T11:02:36.301Z,-1.14
2023-01-11T11:05:11.106Z,-1.13
2023-01-11T11:08:01.073Z,-1.15
2023-01-11T11:10:55.222Z,-1.16
2023-01-11T11:13:54.070Z,-1.13
2023-01-11T11:16:22.937Z,-1.08
2023-01-11T11:18:54.491Z,-1.10
2023-01-11T11:21:34.219Z,-1.11
2023-01-11T11:24:14.586Z,-1.12
2023-01-11T11:26:49.956Z,-1.06
2023-01-11T11:29:29.488Z,-1.07
2023-01-11T11:32:01.785Z,-1.17
2023-01-11T11:34:31.241Z,-1.19
2023-01-11T11:37:00.931Z,-1.25
2023-01-11T11:39:32.149Z,-1.21
2023-01-11T11:42:18.291Z,-1.15
2023-01-11T11:45:10.831Z,-1.15
2023-01-11T11:47:39.551Z,-1.23
2023-01-11T11:50:42.589Z,-1.24
2023-01-11T11:53:37.032Z,-1.30
2023-01-11T11:56:18.844Z,-1.35
2023-01-11T11:59:10.981Z,-1.41
2023-01-11T12:01:48.871Z,-1.39
2023-01-11T12:05:18.019Z,-1.38
2023-01-11T12:07:58.425Z,-1.36
2023-01-11T12:10:30.390Z,-1.36
2023-01-11T12:13:04.323Z,-1.35
2023-01-11T12:15:35.045Z,-1.33
2023-01-11T12:18:33.077Z,-1.35
2023-01-11T12:21:26.230Z,-1.33
2023-01-11T12:24:19.809Z,-1.37
2023-01-11T12:27:45.250Z,-1.35
2023-01-11T12:30:52.685Z,-1.37
2023-01-11T12:34:21.551Z,-1.39
2023-01-11T12:37:32.033Z,-1.42
2023-01-11T12:40:22.591Z,-1.39
2023-01-11T12:43:44.314Z,-1.35
2023-01-11T12:46:49.842Z,-1.39
2023-01-11T12:49:48.938Z,-1.39
2023-01-11T12:52:43.443Z,-1.42
2023-01-11T12:55:33.957Z,-1.43
2023-01-11T12:58:33.918Z,-1.45
2023-01-11T13:01:15.400Z,-1.41
2023-01-11T13:04:12.120Z,-1.42
2023-01-11T13:06:53.952Z,-1.57
2023-01-11T13:09:44.108Z,-1.55
2023-01-11T13:12:27.819Z,-1.51
2023-01-11T13:15:21.213Z,-1.56
2023-01-11T13:17:58.019Z,-1.59
2023-01-11T13:21:00.716Z,-1.54
2023-01-11T13:23:59.822Z,-1.55
2023-01-11T13:26:37.733Z,-1.57
2023-01-11T13:29:43.161Z,-1.56
2023-01-11T13:32:23.757Z,-1.53
2023-01-11T13:35:02.573Z,-1.55
2023-01-11T13:37:55.325Z,-1.54
2023-01-11T13:40:32.536Z,-1.52
2023-01-11T13:43:34.238Z,-1.52
2023-01-11T13:46:10.972Z,-1.51
2023-01-11T13:52:19.257Z,-1.45
2023-01-11T13:55:26.398Z,-1.46
2023-01-11T13:58:52.081Z,-1.54
2023-01-11T14:01:47.545Z,-1.57
2023-01-11T14:04:45.343Z,-1.54
2023-01-11T14:07:46.057Z,-1.55
2023-01-11T14:10:37.013Z,-1.55
2023-01-11T14:13:40.728Z,-1.61
2023-01-11T14:16:52.937Z,-1.67
2023-01-11T14:19:46.630Z,-1.68
2023-01-11T14:22:47.976Z,-1.72
2023-01-11T14:25:42.135Z,-1.73
2023-01-11T14:28:45.273Z,-1.79
2023-01-11T14:32:04.667Z,-1.79
2023-01-11T14:35:08.384Z,-1.81
2023-01-11T14:38:14.614Z,-1.79
2023-01-11T14:41:11.204Z,-1.82
2023-01-11T14:44:14.088Z,-1.88
2023-01-11T14:46:48.967Z,-1.94
2023-01-11T14:49:33.140Z,-1.94
2023-01-11T14:52:14.857Z,-1.99
2023-01-11T14:54:49.544Z,-2.03
2023-01-11T14:57:42.585Z,-2.04
2023-01-11T15:00:20.373Z,-2.05
2023-01-11T15:03:01.812Z,-2.06
2023-01-11T15:05:45.371Z,-2.10
2023-01-11T15:08:14.227Z,-2.16
2023-01-11T15:11:07.980Z,-2.25
2023-01-11T15:13:51.667Z,-2.22
2023-01-11T15:16:44.531Z,-2.21
2023-01-11T15:19:34.919Z,-2.25
2023-01-11T15:22:06.208Z,-2.20
2023-01-11T15:24:54.850Z,-2.26
2023-01-11T15:27:41.779Z,-2.28
2023-01-11T15:30:30.383Z,-2.26
2023-01-11T15:33:17.452Z,-2.24
2023-01-11T15:36:03.952Z,-2.23
2023-01-11T15:39:10.727Z,-2.24
2023-01-11T15:42:08.253Z,-2.24
2023-01-11T15:45:33.164Z,-2.23
2023-01-11T15:48:26.461Z,-2.17
2023-01-11T15:51:38.865Z,-2.22
2023-01-11T15:54:25.822Z,-2.29
2023-01-11T15:57:07.080Z,-2.29
2023-01-11T16:00:23.969Z,-2.32
2023-01-11T16:03:36.193Z,-2.31
2023-01-11T16:07:21.430Z,-2.28
2023-01-11T16:10:09.279Z,-2.26
2023-01-11T16:12:57.069Z,-2.24
2023-01-11T16:15:52.265Z,-2.29
2023-01-11T16:18:27.576Z,-2.34
2023-01-11T16:21:08.518Z,-2.39
2023-01-11T16:23:39.214Z,-2.42
2023-01-11T16:26:08.773Z,-2.40
2023-01-11T16:28:38.207Z,-2.37
2023-01-11T16:31:07.508Z,-2.36
2023-01-11T16:33:36.290Z,-2.38
2023-01-11T16:36:23.887Z,-2.40
2023-01-11T16:39:06.698Z,-2.41
2023-01-11T16:41:53.349Z,-2.42
2023-01-11T16:45:06.602Z,-2.44
2023-01-11T16:47:35.082Z,-2.44
2023-01-11T16:50:25.398Z,-2.48
2023-01-11T16:52:59.509Z,-2.55
2023-01-11T16:55:42.785Z,-2.56
2023-01-11T16:58:30.998Z,-2.59
2023-01-11T17:01:08.463Z,-2.57
2023-01-11T17:03:58.137Z,-2.54
2023-01-11T17:06:27.129Z,-2.54
2023-01-11T17:09:00.146Z,-2.50
2023-01-11T17:11:34.758Z,-2.49
2023-01-11T17:14:30.708Z,-2.45
2023-01-11T17:17:12.552Z,-2.41
2023-01-11T17:19:51.693Z,-2.46
2023-01-11T17:22:31.936Z,-2.44
2023-01-11T17:25:05.859Z,-2.47
2023-01-11T17:27:43.547Z,-2.46
2023-01-11T17:30:27.122Z,-2.51
2023-01-11T17:33:02.275Z,-2.54
2023-01-11T17:35:37.740Z,-2.54
2023-01-11T17:38:11.533Z,-2.54
2023-01-11T17:40:41.017Z,-2.58
2023-01-11T17:43:47.082Z,-2.53
2023-01-11T17:46:27.654Z,-2.53
2023-01-11T17:49:00.004Z,-2.56
2023-01-11T17:51:35.245Z,-2.60
2023-01-11T17:54:04.727Z,-2.61
2023-01-11T17:56:42.330Z,-2.68
2023-01-11T17:59:25.064Z,-2.68
2023-01-11T18:02:12.671Z,-2.67
2023-01-11T18:04:44.455Z,-2.68
2023-01-11T18:07:19.749Z,-2.74
2023-01-11T18:10:03.177Z,-2.73
2023-01-11T18:16:00.819Z,-2.70
2023-01-11T18:18:50.913Z,-2.69
2023-01-11T18:21:29.002Z,-2.68
2023-01-11T18:24:11.306Z,-2.76
2023-01-11T18:26:50.592Z,-2.77
2023-01-11T18:29:44.215Z,-2.80
2023-01-11T18:32:16.045Z,-2.81
2023-01-11T18:34:49.138Z,-2.83
2023-01-11T18:37:18.857Z,-2.87
2023-01-11T18:39:49.472Z,-2.89
2023-01-11T18:42:24.735Z,-2.92
2023-01-11T18:45:00.170Z,-2.96
2023-01-11T18:47:35.619Z,-2.97
2023-01-11T18:50:05.150Z,-3.01
2023-01-11T18:52:37.391Z,-3.02
2023-01-11T18:55:10.534Z,-3.02
2023-01-11T18:57:39.884Z,-2.99
2023-01-11T19:00:16.026Z,-2.99
2023-01-11T19:02:46.994Z,-2.96
2023-01-11T19:05:20.573Z,-3.02
2023-01-11T19:07:50.313Z,-3.02
2023-01-11T19:10:24.009Z,-3.10
2023-01-11T19:12:58.411Z,-3.07
2023-01-11T19:15:27.922Z,-3.05
2023-01-11T19:17:56.955Z,-3.06
2023-01-11T19:23:01.192Z,-3.05
2023-01-11T19:25:30.083Z,-3.07
2023-01-11T19:27:58.927Z,-3.13
2023-01-11T19:30:27.798Z,-3.22
2023-01-11T19:32:57.046Z,-3.20
2023-01-11T19:35:26.323Z,-3.23
2023-01-11T19:37:55.932Z,-3.25
2023-01-11T19:40:27.838Z,-3.24
2023-01-11T19:43:01.300Z,-3.21
2023-01-11T19:45:30.135Z,-3.19
2023-01-11T19:47:59.041Z,-3.26
2023-01-11T19:50:30.859Z,-3.24
2023-01-11T19:53:04.030Z,-3.23
2023-01-11T19:55:33.810Z,-3.23
2023-01-11T19:58:08.709Z,-3.18
2023-01-11T20:00:38.286Z,-3.23
2023-01-11T20:03:07.411Z,-3.24
2023-01-11T20:05:36.578Z,-3.24
2023-01-11T20:08:08.422Z,-3.28
2023-01-11T20:10:48.291Z,-3.34
2023-01-11T20:13:17.469Z,-3.32
2023-01-11T20:15:47.615Z,-3.31
2023-01-11T20:18:17.316Z,-3.34
2023-01-11T20:20:56.848Z,-3.34
2023-01-11T20:23:27.504Z,-3.32
2023-01-11T20:26:04.247Z,-3.29
2023-01-11T20:28:35.744Z,-3.28
2023-01-11T20:31:07.256Z,-3.29
2023-01-11T20:33:36.676Z,-3.29
2023-01-11T20:36:15.703Z,-3.26
2023-01-11T20:38:46.234Z,-3.23
2023-01-11T20:41:45.932Z,-3.28
2023-01-11T20:44:27.450Z,-3.31
2023-01-11T20:47:01.458Z,-3.28
2023-01-11T20:49:30.596Z,-3.30
2023-01-11T20:51:59.630Z,-3.29
2023-01-11T20:54:28.485Z,-3.29
2023-01-11T20:57:02.769Z,-3.30
2023-01-11T20:59:35.253Z,-3.33
2023-01-11T21:02:07.706Z,-3.37
2023-01-11T21:04:37.520Z,-3.32
2023-01-11T21:07:07.165Z,-3.31
2023-01-11T21:09:36.157Z,-3.32
2023-01-11T21:12:05.469Z,-3.32
2023-01-11T21:14:34.422Z,-3.36
2023-01-11T21:17:03.603Z,-3.38
2023-01-11T21:19:32.857Z,-3.33
2023-01-11T21:22:01.852Z,-3.30
2023-01-11T21:24:30.874Z,-3.27
2023-01-11T21:26:59.896Z,-3.21
2023-01-11T21:29:29.098Z,-3.19
2023-01-11T21:31:57.775Z,-3.17
2023-01-11T21:34:30.158Z,-3.16
2023-01-11T21:37:00.231Z,-3.13
2023-01-11T21:39:29.305Z,-3.19
2023-01-11T21:42:01.661Z,-3.16
2023-01-11T21:44:34.078Z,-3.23
2023-01-11T21:47:07.027Z,-3.24
2023-01-11T21:49:36.280Z,-3.25
2023-01-11T21:53:44.409Z,-3.27
2023-01-11T21:56:13.593Z,-3.40
2023-01-11T21:58:42.570Z,-3.39
2023-01-11T22:01:14.268Z,-3.42
2023-01-11T22:03:43.507Z,-3.40
2023-01-11T22:06:12.583Z,-3.41
2023-01-11T22:08:44.904Z,-3.43
2023-01-11T22:11:18.452Z,-3.44
2023-01-11T22:13:47.232Z,-3.42
2023-01-11T22:16:18.303Z,-3.40
2023-01-11T22:18:47.162Z,-3.38
2023-01-11T22:21:19.196Z,-3.37
2023-01-11T22:23:48.837Z,-3.40
2023-01-11T22:26:19.071Z,-3.40
2023-01-11T22:29:07.164Z,-3.36
2023-01-11T22:31:36.035Z,-3.36
2023-01-11T22:34:04.834Z,-3.36
2023-01-11T22:36:33.553Z,-3.34
2023-01-11T22:39:02.603Z,-3.34
2023-01-11T22:41:31.438Z,-3.34
2023-01-11T22:44:00.315Z,-3.31
2023-01-11T22:46:29.227Z,-3.31
2023-01-11T22:48:59.171Z,-3.27
2023-01-11T22:51:28.792Z,-3.29
2023-01-11T22:57:29.873Z,-3.21
2023-01-11T22:59:58.990Z,-3.18
2023-01-11T23:02:27.830Z,-3.19
2023-01-11T23:04:56.753Z,-3.17
2023-01-11T23:07:25.758Z,-3.18
2023-01-11T23:09:58.021Z,-3.22
2023-01-11T23:12:45.347Z,-3.23
2023-01-11T23:15:14.076Z,-3.23
2023-01-11T23:17:42.957Z,-3.21
2023-01-11T23:20:12.467Z,-3.22
2023-01-11T23:22:41.412Z,-3.26
2023-01-11T23:25:10.577Z,-3.30
2023-01-11T23:27:39.985Z,-3.29
2023-01-11T23:30:09.739Z,-3.29
2023-01-11T23:32:38.581Z,-3.34
2023-01-11T23:35:09.276Z,-3.30
2023-01-11T23:37:38.036Z,-3.34
2023-01-11T23:40:08.057Z,-3.34
2023-01-11T23:42:38.587Z,-3.37
2023-01-11T23:45:08.235Z,-3.33
2023-01-11T23:47:37.185Z,-3.34
2023-01-11T23:50:06.525Z,-3.34
2023-01-11T23:52:35.516Z,-3.30
2023-01-11T23:55:04.622Z,-3.28
2023-01-11T23:57:33.415Z,-3.31
